createdAt,value
2016-12-03T00:00:12.306Z,19.24
2016-12-03T00:01:13.160Z,18.89
2016-12-03T00:02:13.691Z,18.71
2016-12-03T00:03:12.499Z,18.66
2016-12-03T00:04:15.198Z,18.65
2016-12-03T00:05:12.283Z,18.64
2016-12-03T00:06:14.128Z,18.62
2016-12-03T00:07:14.665Z,18.62
2016-12-03T00:08:09.111Z,18.61
2016-12-03T00:09:12.336Z,18.61
2016-12-03T00:10:11.276Z,18.60
2016-12-03T00:11:11.081Z,19.13
2016-12-03T00:12:14.967Z,18.81
2016-12-03T00:13:12.643Z,18.67
2016-12-03T00:14:17.274Z,18.63
2016-12-03T00:15:12.312Z,18.62
2016-12-03T00:16:18.925Z,18.60
2016-12-03T00:17:12.918Z,18.60
2016-12-03T00:18:10.724Z,18.59
2016-12-03T00:19:12.895Z,19.12
2016-12-03T00:20:12.035Z,18.79
2016-12-03T00:21:10.983Z,18.64
2016-12-03T00:22:12.688Z,19.15
2016-12-03T00:23:13.231Z,18.83
2016-12-03T00:24:12.375Z,18.65
2016-12-03T00:25:12.900Z,18.64
2016-12-03T00:26:12.755Z,18.60
2016-12-03T00:27:11.717Z,18.58
2016-12-03T00:28:11.688Z,18.58
2016-12-03T00:29:11.752Z,18.57
2016-12-03T00:30:12.734Z,18.56
2016-12-03T00:31:11.800Z,18.57
2016-12-03T00:32:12.399Z,18.56
2016-12-03T00:33:13.551Z,18.56
2016-12-03T00:34:13.366Z,18.56
2016-12-03T00:35:14.114Z,18.55
2016-12-03T00:36:12.190Z,18.56
2016-12-03T00:37:18.862Z,18.55
2016-12-03T00:38:12.515Z,18.55
2016-12-03T00:39:12.845Z,18.56
2016-12-03T00:40:12.284Z,18.57
2016-12-03T00:41:12.338Z,18.53
2016-12-03T00:42:13.700Z,18.54
2016-12-03T00:43:12.403Z,18.54
2016-12-03T00:44:12.449Z,18.54
2016-12-03T00:45:13.026Z,18.53
2016-12-03T00:46:12.976Z,18.53
2016-12-03T00:47:12.083Z,18.53
2016-12-03T00:48:11.933Z,18.53
2016-12-03T00:49:14.675Z,18.53
2016-12-03T00:50:12.313Z,18.53
2016-12-03T00:51:12.731Z,18.58
2016-12-03T00:52:12.265Z,18.58
2016-12-03T00:53:12.358Z,18.53
2016-12-03T00:54:12.385Z,18.52
2016-12-03T00:55:13.901Z,18.53
2016-12-03T00:56:13.571Z,18.52
2016-12-03T00:57:12.667Z,18.53
2016-12-03T00:58:12.437Z,18.55
2016-12-03T00:59:13.163Z,18.53
2016-12-03T01:00:13.486Z,18.57
2016-12-03T01:01:12.210Z,19.04
2016-12-03T01:02:13.895Z,19.09
2016-12-03T01:03:13.272Z,19.12
2016-12-03T01:04:12.191Z,19.13
2016-12-03T01:05:13.836Z,18.61
2016-12-03T01:06:12.454Z,18.57
2016-12-03T01:07:12.782Z,18.61
2016-12-03T01:08:13.300Z,18.56
2016-12-03T01:09:11.163Z,18.53
2016-12-03T01:10:13.084Z,18.72
2016-12-03T01:11:18.346Z,18.58
2016-12-03T01:12:14.750Z,18.55
2016-12-03T01:13:13.035Z,18.54
2016-12-03T01:14:13.923Z,18.54
2016-12-03T01:15:13.507Z,18.53
2016-12-03T01:16:12.626Z,18.54
2016-12-03T01:17:12.399Z,18.53
2016-12-03T01:18:14.369Z,18.53
2016-12-03T01:19:14.004Z,18.52
2016-12-03T01:20:14.335Z,18.53
2016-12-03T01:21:14.950Z,18.55
2016-12-03T01:22:13.909Z,18.52
2016-12-03T01:23:13.075Z,18.53
2016-12-03T01:24:13.485Z,18.54
2016-12-03T01:25:12.527Z,18.52
2016-12-03T01:26:14.044Z,18.53
2016-12-03T01:27:10.519Z,18.52
2016-12-03T01:28:14.927Z,18.52
2016-12-03T01:29:16.556Z,18.52
2016-12-03T01:30:12.598Z,18.53
2016-12-03T01:31:14.337Z,18.53
2016-12-03T01:32:11.430Z,18.52
2016-12-03T01:33:12.097Z,18.52
2016-12-03T01:34:15.209Z,18.53
2016-12-03T01:35:12.762Z,18.52
2016-12-03T01:36:14.565Z,18.52
2016-12-03T01:37:13.919Z,18.52
2016-12-03T01:38:12.933Z,18.52
2016-12-03T01:39:11.965Z,18.53
2016-12-03T01:40:12.674Z,18.52
2016-12-03T01:41:12.027Z,18.56
2016-12-03T01:42:13.015Z,18.52
2016-12-03T01:43:13.401Z,18.53
2016-12-03T01:44:10.206Z,18.53
2016-12-03T01:45:15.052Z,18.52
2016-12-03T01:46:13.480Z,18.54
2016-12-03T01:47:14.005Z,18.53
2016-12-03T01:48:12.611Z,18.52
2016-12-03T01:49:11.695Z,18.52
2016-12-03T01:50:13.400Z,18.52
2016-12-03T01:51:15.107Z,18.52
2016-12-03T01:52:13.199Z,18.59
2016-12-03T01:53:13.065Z,18.53
2016-12-03T01:54:13.136Z,18.54
2016-12-03T01:55:12.860Z,18.52
2016-12-03T01:56:11.902Z,18.53
2016-12-03T01:57:16.610Z,18.53
2016-12-03T01:58:13.813Z,18.53
2016-12-03T01:59:12.491Z,18.52
2016-12-03T02:00:12.143Z,18.53
2016-12-03T02:01:13.643Z,18.55
2016-12-03T02:02:12.021Z,18.57
2016-12-03T02:03:11.986Z,18.52
2016-12-03T02:04:11.953Z,18.52
2016-12-03T02:05:12.024Z,18.51
2016-12-03T02:06:13.185Z,18.51
2016-12-03T02:07:12.816Z,18.55
2016-12-03T02:08:14.112Z,18.54
2016-12-03T02:09:14.501Z,18.53
2016-12-03T02:10:13.937Z,18.52
2016-12-03T02:11:13.669Z,18.52
2016-12-03T02:12:14.727Z,18.52
2016-12-03T02:13:13.958Z,18.50
2016-12-03T02:14:12.964Z,18.52
2016-12-03T02:15:11.911Z,18.52
2016-12-03T02:16:12.893Z,18.52
2016-12-03T02:17:14.517Z,18.52
2016-12-03T02:18:13.518Z,18.51
2016-12-03T02:19:13.046Z,18.51
2016-12-03T02:20:13.344Z,18.50
2016-12-03T02:21:10.639Z,18.50
2016-12-03T02:22:14.423Z,18.50
2016-12-03T02:23:12.628Z,18.49
2016-12-03T02:24:11.587Z,18.50
2016-12-03T02:25:12.170Z,18.51
2016-12-03T02:26:10.826Z,18.50
2016-12-03T02:27:13.119Z,18.51
2016-12-03T02:28:13.749Z,18.52
2016-12-03T02:29:11.802Z,18.51
2016-12-03T02:30:12.332Z,18.51
2016-12-03T02:31:12.981Z,18.50
2016-12-03T02:32:12.747Z,18.49
2016-12-03T02:33:14.552Z,18.49
2016-12-03T02:34:12.601Z,18.50
2016-12-03T02:35:13.603Z,18.49
2016-12-03T02:36:12.888Z,18.50
2016-12-03T02:37:12.059Z,18.49
2016-12-03T02:38:12.764Z,18.51
2016-12-03T02:39:14.018Z,18.48
2016-12-03T02:40:13.374Z,18.49
2016-12-03T02:41:12.923Z,18.49
2016-12-03T02:42:13.048Z,18.50
2016-12-03T02:43:12.546Z,18.52
2016-12-03T02:44:13.047Z,18.53
2016-12-03T02:45:11.949Z,18.49
2016-12-03T02:46:12.607Z,18.49
2016-12-03T02:47:12.739Z,18.50
2016-12-03T02:48:12.269Z,18.49
2016-12-03T02:49:13.208Z,19.02
2016-12-03T02:50:12.687Z,19.07
2016-12-03T02:51:12.271Z,19.06
2016-12-03T02:52:14.016Z,19.09
2016-12-03T02:53:12.807Z,19.08
2016-12-03T02:54:12.941Z,18.60
2016-12-03T02:55:12.302Z,18.53
2016-12-03T02:56:12.898Z,18.51
2016-12-03T02:57:10.681Z,18.50
2016-12-03T02:58:12.416Z,18.49
2016-12-03T02:59:13.645Z,18.49
2016-12-03T03:00:11.587Z,18.49
2016-12-03T03:01:11.576Z,18.48
2016-12-03T03:02:11.688Z,18.48
2016-12-03T03:03:12.475Z,18.51
2016-12-03T03:04:13.111Z,18.47
2016-12-03T03:05:10.563Z,18.47
2016-12-03T03:06:13.755Z,18.99
2016-12-03T03:07:12.905Z,19.05
2016-12-03T03:08:12.699Z,19.07
2016-12-03T03:09:12.737Z,19.08
2016-12-03T03:10:12.743Z,19.08
2016-12-03T03:11:12.582Z,19.09
2016-12-03T03:12:12.196Z,18.57
2016-12-03T03:13:13.715Z,18.52
2016-12-03T03:14:12.545Z,18.50
2016-12-03T03:15:13.223Z,18.49
2016-12-03T03:16:12.301Z,18.48
2016-12-03T03:17:12.847Z,18.47
2016-12-03T03:18:11.909Z,18.48
2016-12-03T03:19:12.022Z,18.47
2016-12-03T03:20:13.595Z,18.48
2016-12-03T03:21:11.317Z,18.48
2016-12-03T03:22:12.452Z,18.99
2016-12-03T03:23:12.520Z,19.04
2016-12-03T03:24:13.741Z,18.74
2016-12-03T03:25:12.287Z,18.58
2016-12-03T03:26:13.735Z,18.50
2016-12-03T03:27:10.622Z,18.48
2016-12-03T03:28:12.531Z,18.99
2016-12-03T03:29:13.152Z,19.03
2016-12-03T03:30:13.168Z,18.54
2016-12-03T03:31:12.203Z,18.50
2016-12-03T03:32:12.929Z,18.48
2016-12-03T03:33:12.409Z,18.53
2016-12-03T03:34:11.395Z,18.47
2016-12-03T03:35:13.442Z,18.98
2016-12-03T03:36:12.669Z,19.02
2016-12-03T03:37:09.577Z,19.04
2016-12-03T03:38:18.913Z,18.53
2016-12-03T03:39:10.090Z,18.50
2016-12-03T03:40:15.620Z,18.47
2016-12-03T03:41:11.776Z,18.47
2016-12-03T03:42:12.771Z,18.47
2016-12-03T03:43:12.695Z,18.46
2016-12-03T03:44:11.676Z,18.46
2016-12-03T03:45:13.422Z,18.45
2016-12-03T03:46:12.347Z,18.46
2016-12-03T03:47:12.300Z,18.46
2016-12-03T03:48:13.368Z,18.51
2016-12-03T03:49:12.829Z,18.44
2016-12-03T03:50:13.295Z,18.44
2016-12-03T03:51:12.227Z,18.43
2016-12-03T03:52:12.357Z,18.43
2016-12-03T03:53:12.925Z,18.44
2016-12-03T03:54:12.514Z,18.51
2016-12-03T03:55:13.511Z,18.44
2016-12-03T03:56:11.148Z,18.44
2016-12-03T03:57:12.922Z,18.44
2016-12-03T03:58:12.740Z,18.43
2016-12-03T03:59:11.495Z,18.43
2016-12-03T04:00:14.632Z,18.44
2016-12-03T04:01:12.469Z,18.44
2016-12-03T04:02:13.215Z,18.43
2016-12-03T04:03:12.682Z,18.48
2016-12-03T04:04:12.402Z,18.43
2016-12-03T04:05:10.500Z,18.43
2016-12-03T04:06:13.393Z,18.43
2016-12-03T04:07:12.373Z,18.44
2016-12-03T04:08:13.414Z,18.44
2016-12-03T04:09:12.820Z,18.47
2016-12-03T04:10:12.579Z,18.44
2016-12-03T04:11:12.288Z,18.44
2016-12-03T04:12:12.661Z,18.50
2016-12-03T04:13:14.703Z,18.44
2016-12-03T04:14:13.692Z,18.44
2016-12-03T04:15:11.731Z,18.43
2016-12-03T04:16:12.641Z,18.44
2016-12-03T04:17:13.864Z,18.43
2016-12-03T04:18:13.392Z,18.43
2016-12-03T04:19:13.031Z,18.44
2016-12-03T04:20:12.044Z,18.43
2016-12-03T04:21:14.733Z,18.43
2016-12-03T04:22:12.581Z,18.43
2016-12-03T04:23:11.672Z,18.42
2016-12-03T04:24:12.388Z,18.42
2016-12-03T04:25:13.268Z,18.42
2016-12-03T04:26:17.893Z,18.43
2016-12-03T04:27:12.510Z,18.43
2016-12-03T04:28:14.011Z,18.42
2016-12-03T04:29:13.379Z,18.47
2016-12-03T04:30:12.346Z,18.42
2016-12-03T04:31:12.194Z,18.42
2016-12-03T04:32:12.559Z,18.47
2016-12-03T04:33:09.619Z,18.42
2016-12-03T04:34:12.600Z,18.42
2016-12-03T04:35:12.553Z,18.43
2016-12-03T04:36:13.191Z,18.42
2016-12-03T04:37:10.850Z,18.41
2016-12-03T04:38:12.712Z,18.42
2016-12-03T04:39:12.852Z,18.49
2016-12-03T04:40:13.292Z,18.43
2016-12-03T04:41:12.082Z,18.42
2016-12-03T04:42:11.959Z,18.43
2016-12-03T04:43:11.871Z,18.43
2016-12-03T04:44:13.533Z,18.42
2016-12-03T04:45:12.573Z,18.42
2016-12-03T04:46:12.390Z,18.42
2016-12-03T04:47:18.741Z,18.41
2016-12-03T04:48:12.311Z,18.50
2016-12-03T04:49:12.832Z,18.45
2016-12-03T04:50:12.553Z,18.42
2016-12-03T04:51:12.645Z,18.42
2016-12-03T04:52:13.427Z,18.41
2016-12-03T04:53:12.812Z,18.45
2016-12-03T04:54:13.766Z,18.41
2016-12-03T04:55:12.652Z,18.41
2016-12-03T04:56:12.556Z,18.42
2016-12-03T04:57:11.473Z,18.42
2016-12-03T04:58:13.593Z,18.94
2016-12-03T04:59:12.163Z,18.99
2016-12-03T05:00:12.783Z,19.00
2016-12-03T05:01:11.852Z,18.49
2016-12-03T05:02:12.571Z,18.45
2016-12-03T05:03:12.261Z,18.44
2016-12-03T05:04:14.050Z,18.41
2016-12-03T05:05:13.659Z,18.41
2016-12-03T05:06:13.118Z,18.41
2016-12-03T05:07:11.042Z,18.40
2016-12-03T05:08:12.789Z,18.41
2016-12-03T05:09:11.883Z,18.41
2016-12-03T05:10:13.627Z,18.41
2016-12-03T05:11:13.472Z,18.41
2016-12-03T05:12:14.053Z,18.40
2016-12-03T05:13:13.291Z,18.46
2016-12-03T05:14:12.652Z,18.46
2016-12-03T05:15:12.237Z,18.46
2016-12-03T05:16:12.723Z,18.40
2016-12-03T05:17:12.781Z,18.41
2016-12-03T05:18:12.414Z,18.45
2016-12-03T05:19:14.403Z,18.40
2016-12-03T05:20:11.668Z,18.40
2016-12-03T05:21:12.341Z,18.40
2016-12-03T05:22:18.618Z,18.45
2016-12-03T05:23:14.722Z,18.40
2016-12-03T05:24:11.744Z,18.41
2016-12-03T05:25:15.963Z,18.40
2016-12-03T05:26:12.391Z,18.41
2016-12-03T05:27:13.073Z,18.39
2016-12-03T05:28:13.001Z,18.40
2016-12-03T05:29:10.950Z,18.39
2016-12-03T05:30:12.790Z,18.38
2016-12-03T05:31:12.753Z,18.40
2016-12-03T05:32:09.935Z,18.41
2016-12-03T05:33:12.222Z,18.93
2016-12-03T05:34:12.258Z,18.97
2016-12-03T05:35:12.718Z,18.98
2016-12-03T05:36:12.668Z,19.00
2016-12-03T05:37:12.318Z,19.01
2016-12-03T05:38:12.739Z,19.03
2016-12-03T05:39:11.982Z,19.01
2016-12-03T05:40:13.632Z,18.50
2016-12-03T05:41:11.677Z,18.45
2016-12-03T05:42:12.196Z,18.47
2016-12-03T05:43:13.585Z,18.42
2016-12-03T05:44:12.170Z,18.46
2016-12-03T05:45:12.980Z,18.40
2016-12-03T05:46:11.827Z,18.39
2016-12-03T05:47:12.703Z,18.40
2016-12-03T05:48:12.122Z,18.43
2016-12-03T05:49:13.131Z,18.39
2016-12-03T05:50:13.058Z,18.39
2016-12-03T05:51:11.140Z,18.39
2016-12-03T05:52:13.092Z,18.92
2016-12-03T05:53:12.159Z,18.96
2016-12-03T05:54:13.731Z,18.99
2016-12-03T05:55:13.320Z,18.48
2016-12-03T05:56:13.002Z,18.43
2016-12-03T05:57:13.577Z,18.41
2016-12-03T05:58:11.542Z,18.39
2016-12-03T05:59:12.864Z,18.45
2016-12-03T06:00:12.266Z,18.43
2016-12-03T06:01:13.253Z,18.40
2016-12-03T06:02:12.882Z,18.39
2016-12-03T06:03:11.897Z,18.39
2016-12-03T06:04:12.713Z,18.40
2016-12-03T06:05:12.422Z,18.39
2016-12-03T06:06:13.115Z,18.40
2016-12-03T06:07:12.513Z,18.48
2016-12-03T06:08:13.324Z,18.39
2016-12-03T06:09:12.178Z,18.38
2016-12-03T06:10:12.111Z,18.38
2016-12-03T06:11:12.192Z,18.39
2016-12-03T06:12:12.270Z,18.38
2016-12-03T06:13:13.020Z,18.39
2016-12-03T06:14:12.006Z,18.39
2016-12-03T06:15:11.983Z,18.38
2016-12-03T06:16:12.105Z,18.38
2016-12-03T06:17:13.622Z,18.37
2016-12-03T06:18:11.527Z,18.38
2016-12-03T06:19:12.842Z,18.38
2016-12-03T06:20:11.810Z,18.38
2016-12-03T06:21:12.635Z,18.38
2016-12-03T06:22:11.641Z,18.38
2016-12-03T06:23:13.167Z,18.41
2016-12-03T06:24:13.073Z,18.91
2016-12-03T06:25:12.594Z,18.96
2016-12-03T06:26:12.633Z,18.97
2016-12-03T06:27:11.774Z,18.99
2016-12-03T06:28:12.348Z,19.01
2016-12-03T06:29:12.883Z,19.02
2016-12-03T06:30:10.702Z,19.01
2016-12-03T06:31:11.675Z,19.03
2016-12-03T06:32:13.417Z,18.54
2016-12-03T06:33:12.942Z,18.48
2016-12-03T06:34:12.820Z,18.47
2016-12-03T06:35:11.891Z,18.42
2016-12-03T06:36:13.063Z,18.42
2016-12-03T06:37:12.901Z,18.49
2016-12-03T06:38:13.043Z,18.41
2016-12-03T06:39:09.534Z,18.40
2016-12-03T06:40:12.823Z,18.40
2016-12-03T06:41:12.529Z,18.40
2016-12-03T06:42:12.867Z,18.43
2016-12-03T06:43:11.999Z,18.39
2016-12-03T06:44:12.123Z,18.40
2016-12-03T06:45:12.940Z,18.39
2016-12-03T06:46:14.769Z,18.39
2016-12-03T06:47:13.774Z,18.39
2016-12-03T06:48:12.312Z,18.39
2016-12-03T06:49:13.422Z,18.39
2016-12-03T06:50:14.367Z,18.38
2016-12-03T06:51:13.178Z,18.39
2016-12-03T06:52:10.953Z,18.38
2016-12-03T06:53:13.461Z,18.38
2016-12-03T06:54:12.806Z,18.37
2016-12-03T06:55:13.302Z,18.39
2016-12-03T06:56:12.302Z,18.37
2016-12-03T06:57:13.602Z,18.38
2016-12-03T06:58:11.755Z,18.37
2016-12-03T06:59:13.393Z,18.37
2016-12-03T07:00:12.446Z,18.37
2016-12-03T07:01:13.601Z,18.37
2016-12-03T07:02:12.113Z,18.43
2016-12-03T07:03:13.174Z,18.38
2016-12-03T07:04:12.939Z,18.37
2016-12-03T07:05:12.802Z,18.42
2016-12-03T07:06:12.284Z,18.38
2016-12-03T07:07:12.326Z,18.38
2016-12-03T07:08:12.810Z,18.41
2016-12-03T07:09:13.314Z,18.93
2016-12-03T07:10:13.026Z,19.08
2016-12-03T07:11:12.131Z,18.83
2016-12-03T07:12:12.544Z,19.01
2016-12-03T07:13:13.286Z,19.23
2016-12-03T07:14:12.247Z,19.02
2016-12-03T07:15:12.855Z,16.38
2016-12-03T07:16:10.297Z,15.06
2016-12-03T07:17:10.342Z,14.51
2016-12-03T07:18:12.876Z,14.86
2016-12-03T07:19:12.368Z,15.20
2016-12-03T07:20:12.954Z,14.97
2016-12-03T07:21:13.698Z,14.79
2016-12-03T07:22:14.031Z,15.36
2016-12-03T07:23:12.885Z,15.87
2016-12-03T07:24:11.894Z,15.75
2016-12-03T07:25:11.836Z,16.01
2016-12-03T07:26:12.543Z,16.22
2016-12-03T07:27:13.103Z,16.46
2016-12-03T07:28:12.783Z,16.59
2016-12-03T07:29:11.891Z,16.73
2016-12-03T07:30:11.927Z,16.88
2016-12-03T07:31:12.526Z,17.03
2016-12-03T07:32:12.878Z,17.17
2016-12-03T07:33:12.686Z,17.23
2016-12-03T07:34:11.610Z,17.30
2016-12-03T07:35:09.728Z,17.58
2016-12-03T07:36:13.498Z,17.53
2016-12-03T07:37:11.109Z,17.50
2016-12-03T07:38:13.137Z,17.98
2016-12-03T07:39:13.973Z,18.07
2016-12-03T07:40:12.048Z,18.16
2016-12-03T07:41:12.177Z,18.23
2016-12-03T07:42:12.326Z,18.28
2016-12-03T07:43:12.360Z,17.99
2016-12-03T07:44:13.145Z,17.85
2016-12-03T07:45:12.835Z,17.83
2016-12-03T07:46:12.288Z,17.90
2016-12-03T07:47:12.690Z,17.91
2016-12-03T07:48:11.685Z,17.88
2016-12-03T07:49:11.732Z,17.90
2016-12-03T07:50:13.483Z,17.92
2016-12-03T07:51:12.552Z,17.95
2016-12-03T07:52:11.595Z,17.96
2016-12-03T07:53:12.287Z,17.98
2016-12-03T07:54:13.216Z,18.01
2016-12-03T07:55:12.375Z,18.03
2016-12-03T07:56:12.735Z,18.07
2016-12-03T07:57:11.756Z,18.06
2016-12-03T07:58:12.161Z,18.10
2016-12-03T07:59:12.695Z,18.07
2016-12-03T08:00:11.778Z,18.09
2016-12-03T08:01:12.490Z,18.17
2016-12-03T08:02:13.248Z,18.12
2016-12-03T08:03:12.247Z,18.13
2016-12-03T08:04:12.294Z,18.13
2016-12-03T08:05:12.744Z,18.19
2016-12-03T08:06:11.777Z,18.15
2016-12-03T08:07:11.855Z,18.16
2016-12-03T08:08:11.702Z,18.17
2016-12-03T08:09:09.836Z,18.17
2016-12-03T08:10:11.939Z,18.34
2016-12-03T08:11:12.904Z,18.23
2016-12-03T08:12:12.089Z,18.21
2016-12-03T08:13:12.184Z,18.20
2016-12-03T08:14:13.723Z,18.20
2016-12-03T08:15:13.370Z,18.20
2016-12-03T08:16:12.968Z,18.22
2016-12-03T08:17:12.733Z,18.20
2016-12-03T08:18:11.664Z,18.74
2016-12-03T08:19:12.438Z,18.79
2016-12-03T08:20:12.944Z,18.49
2016-12-03T08:21:12.015Z,18.30
2016-12-03T08:22:12.446Z,18.29
2016-12-03T08:23:13.059Z,18.23
2016-12-03T08:24:12.645Z,18.21
2016-12-03T08:25:11.831Z,18.75
2016-12-03T08:26:12.025Z,18.80
2016-12-03T08:27:12.915Z,18.84
2016-12-03T08:28:12.424Z,18.53
2016-12-03T08:29:12.398Z,18.31
2016-12-03T08:30:13.086Z,18.26
2016-12-03T08:31:12.208Z,18.24
2016-12-03T08:32:12.323Z,18.23
2016-12-03T08:33:13.007Z,18.28
2016-12-03T08:34:12.795Z,18.22
2016-12-03T08:35:12.926Z,18.22
2016-12-03T08:36:12.604Z,18.21
2016-12-03T08:37:13.197Z,18.22
2016-12-03T08:38:09.445Z,18.21
2016-12-03T08:39:10.686Z,18.22
2016-12-03T08:40:12.010Z,18.21
2016-12-03T08:41:12.007Z,18.21
2016-12-03T08:42:11.926Z,18.21
2016-12-03T08:43:12.424Z,18.23
2016-12-03T08:44:12.922Z,18.24
2016-12-03T08:45:11.937Z,18.20
2016-12-03T08:46:11.077Z,18.19
2016-12-03T08:47:12.072Z,18.21
2016-12-03T08:48:12.754Z,18.18
2016-12-03T08:49:12.571Z,18.19
2016-12-03T08:50:11.411Z,18.18
2016-12-03T08:51:12.318Z,18.17
2016-12-03T08:52:13.931Z,18.17
2016-12-03T08:53:12.358Z,18.21
2016-12-03T08:54:12.770Z,18.22
2016-12-03T08:55:12.392Z,18.18
2016-12-03T08:56:12.929Z,18.20
2016-12-03T08:57:11.929Z,18.18
2016-12-03T08:58:12.049Z,18.18
2016-12-03T08:59:12.205Z,18.17
2016-12-03T09:00:12.898Z,18.17
2016-12-03T09:01:12.647Z,18.17
2016-12-03T09:02:11.610Z,18.18
2016-12-03T09:03:12.234Z,18.18
2016-12-03T09:04:13.089Z,18.18
2016-12-03T09:05:12.049Z,18.18
2016-12-03T09:06:12.761Z,18.24
2016-12-03T09:07:12.398Z,18.17
2016-12-03T09:08:12.883Z,18.18
2016-12-03T09:09:12.404Z,18.17
2016-12-03T09:10:14.010Z,18.18
2016-12-03T09:11:12.073Z,18.18
2016-12-03T09:12:12.829Z,18.18
2016-12-03T09:13:11.783Z,18.19
2016-12-03T09:14:11.780Z,18.18
2016-12-03T09:15:11.875Z,18.18
2016-12-03T09:16:11.950Z,18.20
2016-12-03T09:17:12.762Z,18.18
2016-12-03T09:18:11.976Z,18.19
2016-12-03T09:19:11.988Z,18.21
2016-12-03T09:20:16.479Z,18.21
2016-12-03T09:21:12.934Z,18.25
2016-12-03T09:22:12.771Z,18.21
2016-12-03T09:23:11.716Z,18.21
2016-12-03T09:24:13.257Z,18.22
2016-12-03T09:25:12.279Z,18.22
2016-12-03T09:26:13.887Z,18.21
2016-12-03T09:27:11.972Z,18.23
2016-12-03T09:28:12.101Z,18.23
2016-12-03T09:29:12.087Z,18.23
2016-12-03T09:30:12.160Z,18.24
2016-12-03T09:31:12.518Z,18.25
2016-12-03T09:32:12.619Z,18.24
2016-12-03T09:33:11.594Z,18.24
2016-12-03T09:34:12.514Z,18.24
2016-12-03T09:35:12.232Z,18.25
2016-12-03T09:36:12.353Z,18.25
2016-12-03T09:37:12.319Z,18.26
2016-12-03T09:38:12.350Z,18.26
2016-12-03T09:39:11.238Z,18.26
2016-12-03T09:40:12.444Z,18.26
2016-12-03T09:41:11.161Z,18.27
2016-12-03T09:42:12.041Z,18.27
2016-12-03T09:43:12.672Z,18.28
2016-12-03T09:44:11.589Z,18.28
2016-12-03T09:45:13.336Z,18.28
2016-12-03T09:46:12.273Z,18.29
2016-12-03T09:47:12.148Z,18.29
2016-12-03T09:48:10.234Z,18.29
2016-12-03T09:49:12.823Z,18.83
2016-12-03T09:50:12.710Z,18.54
2016-12-03T09:51:11.570Z,18.39
2016-12-03T09:52:12.556Z,18.35
2016-12-03T09:53:12.569Z,18.33
2016-12-03T09:54:12.560Z,18.34
2016-12-03T09:55:11.653Z,18.33
2016-12-03T09:56:12.347Z,18.34
2016-12-03T09:57:12.236Z,18.32
2016-12-03T09:58:12.708Z,18.34
2016-12-03T09:59:13.021Z,18.32
2016-12-03T10:00:13.801Z,18.32
2016-12-03T10:01:13.328Z,18.31
2016-12-03T10:02:12.813Z,18.32
2016-12-03T10:03:12.933Z,18.33
2016-12-03T10:04:12.067Z,18.32
2016-12-03T10:05:12.015Z,18.32
2016-12-03T10:06:10.751Z,18.32
2016-12-03T10:07:12.745Z,18.85
2016-12-03T10:08:12.432Z,18.91
2016-12-03T10:09:12.861Z,18.93
2016-12-03T10:10:11.985Z,18.95
2016-12-03T10:11:13.098Z,18.96
2016-12-03T10:12:12.158Z,18.96
2016-12-03T10:13:13.482Z,18.97
2016-12-03T10:14:12.847Z,18.97
2016-12-03T10:15:11.002Z,18.96
2016-12-03T10:16:12.084Z,18.94
2016-12-03T10:17:12.094Z,18.63
2016-12-03T10:18:12.717Z,18.43
2016-12-03T10:19:12.443Z,18.39
2016-12-03T10:20:12.396Z,18.36
2016-12-03T10:21:12.814Z,18.38
2016-12-03T10:22:11.913Z,18.34
2016-12-03T10:23:12.559Z,18.37
2016-12-03T10:24:11.605Z,18.33
2016-12-03T10:25:12.357Z,18.33
2016-12-03T10:26:13.994Z,18.32
2016-12-03T10:27:12.716Z,18.32
2016-12-03T10:28:11.612Z,18.32
2016-12-03T10:29:11.765Z,18.32
2016-12-03T10:30:13.406Z,18.31
2016-12-03T10:31:15.282Z,18.32
2016-12-03T10:32:12.366Z,18.32
2016-12-03T10:33:12.452Z,18.32
2016-12-03T10:34:12.500Z,18.32
2016-12-03T10:35:13.021Z,18.35
2016-12-03T10:36:13.505Z,18.86
2016-12-03T10:37:13.385Z,18.89
2016-12-03T10:38:10.393Z,18.92
2016-12-03T10:39:11.612Z,18.93
2016-12-03T10:40:12.452Z,18.94
2016-12-03T10:41:19.491Z,18.95
2016-12-03T10:42:12.357Z,18.41
2016-12-03T10:43:12.403Z,18.37
2016-12-03T10:44:12.367Z,18.35
2016-12-03T10:45:13.160Z,18.34
2016-12-03T10:46:13.724Z,18.32
2016-12-03T10:47:09.305Z,18.32
2016-12-03T10:48:12.351Z,18.32
2016-12-03T10:49:12.374Z,18.33
2016-12-03T10:50:12.966Z,18.33
2016-12-03T10:51:12.673Z,18.32
2016-12-03T10:52:11.628Z,18.33
2016-12-03T10:53:11.771Z,18.32
2016-12-03T10:54:12.463Z,18.32
2016-12-03T10:55:12.584Z,18.32
2016-12-03T10:56:12.014Z,18.35
2016-12-03T10:57:12.531Z,18.38
2016-12-03T10:58:11.502Z,18.32
2016-12-03T10:59:14.983Z,18.31
2016-12-03T11:00:13.697Z,18.31
2016-12-03T11:01:11.650Z,18.32
2016-12-03T11:02:11.719Z,18.32
2016-12-03T11:03:12.411Z,18.32
2016-12-03T11:04:13.280Z,18.32
2016-12-03T11:05:12.337Z,18.32
2016-12-03T11:06:14.829Z,18.30
2016-12-03T11:07:13.526Z,18.28
2016-12-03T11:08:11.528Z,18.26
2016-12-03T11:09:13.071Z,18.81
2016-12-03T11:10:12.649Z,18.88
2016-12-03T11:11:09.730Z,18.93
2016-12-03T11:12:13.791Z,18.94
2016-12-03T11:13:12.572Z,18.59
2016-12-03T11:14:11.729Z,18.45
2016-12-03T11:15:11.812Z,18.40
2016-12-03T11:16:11.880Z,18.36
2016-12-03T11:17:13.812Z,18.34
2016-12-03T11:18:12.354Z,18.35
2016-12-03T11:19:12.334Z,18.34
2016-12-03T11:20:12.399Z,18.33
2016-12-03T11:21:12.779Z,18.36
2016-12-03T11:22:11.781Z,18.33
2016-12-03T11:23:13.655Z,18.32
2016-12-03T11:24:09.814Z,18.31
2016-12-03T11:25:11.933Z,18.53
2016-12-03T11:26:12.420Z,18.38
2016-12-03T11:27:12.448Z,18.34
2016-12-03T11:28:13.852Z,18.33
2016-12-03T11:29:12.477Z,18.32
2016-12-03T11:30:13.765Z,18.35
2016-12-03T11:31:12.175Z,18.32
2016-12-03T11:32:12.260Z,18.32
2016-12-03T11:33:12.190Z,18.30
2016-12-03T11:34:12.290Z,18.29
2016-12-03T11:35:12.765Z,18.30
2016-12-03T11:36:12.414Z,18.35
2016-12-03T11:37:12.362Z,18.28
2016-12-03T11:38:12.478Z,18.28
2016-12-03T11:39:12.999Z,18.31
2016-12-03T11:40:12.649Z,18.30
2016-12-03T11:41:10.625Z,18.27
2016-12-03T11:42:11.810Z,18.78
2016-12-03T11:43:11.893Z,18.44
2016-12-03T11:44:12.338Z,18.37
2016-12-03T11:45:10.661Z,18.30
2016-12-03T11:46:11.766Z,18.33
2016-12-03T11:47:11.811Z,18.35
2016-12-03T11:48:12.401Z,18.41
2016-12-03T11:49:14.240Z,18.39
2016-12-03T11:50:12.808Z,18.44
2016-12-03T11:51:11.750Z,18.98
2016-12-03T11:52:12.486Z,19.02
2016-12-03T11:53:12.800Z,18.52
2016-12-03T11:54:10.733Z,18.50
2016-12-03T11:55:11.951Z,18.49
2016-12-03T11:56:12.594Z,18.46
2016-12-03T11:57:12.351Z,18.45
2016-12-03T11:58:12.340Z,18.46
2016-12-03T11:59:12.292Z,18.44
2016-12-03T12:00:12.918Z,18.48
2016-12-03T12:01:11.016Z,18.50
2016-12-03T12:02:11.970Z,18.49
2016-12-03T12:03:12.506Z,18.48
2016-12-03T12:04:12.540Z,18.45
2016-12-03T12:05:14.200Z,18.47
2016-12-03T12:06:12.318Z,18.46
2016-12-03T12:07:10.850Z,18.42
2016-12-03T12:08:12.080Z,18.40
2016-12-03T12:09:12.592Z,18.41
2016-12-03T12:10:12.539Z,18.37
2016-12-03T12:11:12.528Z,18.37
2016-12-03T12:12:13.004Z,18.41
2016-12-03T12:13:12.195Z,18.91
2016-12-03T12:14:12.164Z,18.95
2016-12-03T12:15:12.804Z,18.97
2016-12-03T12:16:11.761Z,18.97
2016-12-03T12:17:13.771Z,18.96
2016-12-03T12:18:11.733Z,18.97
2016-12-03T12:19:12.486Z,18.95
2016-12-03T12:20:12.527Z,18.63
2016-12-03T12:21:14.188Z,18.40
2016-12-03T12:22:13.123Z,18.35
2016-12-03T12:23:12.058Z,18.32
2016-12-03T12:24:12.184Z,18.31
2016-12-03T12:25:12.826Z,18.30
2016-12-03T12:26:11.993Z,18.30
2016-12-03T12:27:13.788Z,18.30
2016-12-03T12:28:12.530Z,18.29
2016-12-03T12:29:11.637Z,18.29
2016-12-03T12:30:12.154Z,18.28
2016-12-03T12:31:12.852Z,18.31
2016-12-03T12:32:12.797Z,18.30
2016-12-03T12:33:09.287Z,18.26
2016-12-03T12:34:12.602Z,18.30
2016-12-03T12:35:12.634Z,18.29
2016-12-03T12:36:11.949Z,18.30
2016-12-03T12:37:12.161Z,18.30
2016-12-03T12:38:10.692Z,18.30
2016-12-03T12:39:12.412Z,18.83
2016-12-03T12:40:13.120Z,18.52
2016-12-03T12:41:12.544Z,18.41
2016-12-03T12:42:11.717Z,18.33
2016-12-03T12:43:12.396Z,18.31
2016-12-03T12:44:12.325Z,18.31
2016-12-03T12:45:11.112Z,18.31
2016-12-03T12:46:12.770Z,18.30
2016-12-03T12:47:11.897Z,18.30
2016-12-03T12:48:12.563Z,18.29
2016-12-03T12:49:14.286Z,18.30
2016-12-03T12:50:12.626Z,18.33
2016-12-03T12:51:09.123Z,18.29
2016-12-03T12:52:12.269Z,18.30